createdAt,value
2023-04-17T00:01:38.884Z,27.53
2023-04-17T00:04:11.158Z,25.10
2023-04-17T00:06:38.995Z,27.80
2023-04-17T00:09:06.390Z,28.60
2023-04-17T00:11:33.530Z,28.97
2023-04-17T00:14:00.821Z,28.30
2023-04-17T00:16:28.419Z,28.73
2023-04-17T00:18:56.128Z,27.13
2023-04-17T00:21:23.508Z,24.87
2023-04-17T00:23:50.736Z,26.60
2023-04-17T00:26:17.852Z,28.77
2023-04-17T00:28:44.998Z,25.67
2023-04-17T00:31:12.247Z,25.73
2023-04-17T00:33:39.400Z,26.63
2023-04-17T00:36:07.575Z,28.43
2023-04-17T00:38:34.844Z,25.87
2023-04-17T00:41:02.469Z,28.27
2023-04-17T00:43:29.722Z,24.93
2023-04-17T00:45:57.627Z,26.33
2023-04-17T00:48:25.360Z,26.27
2023-04-17T00:50:55.417Z,25.17
2023-04-17T00:53:23.360Z,24.00
2023-04-17T00:55:52.237Z,25.63
2023-04-17T00:58:19.742Z,22.83
2023-04-17T01:00:46.979Z,24.77
2023-04-17T01:03:14.808Z,25.10
2023-04-17T01:05:42.154Z,25.13
2023-04-17T01:08:09.314Z,23.63
2023-04-17T01:10:36.500Z,25.03
2023-04-17T01:13:06.114Z,25.20
2023-04-17T01:15:34.825Z,31.63
2023-04-17T01:18:02.567Z,25.63
2023-04-17T01:20:31.385Z,25.30
2023-04-17T01:23:00.376Z,24.87
2023-04-17T01:25:28.841Z,26.47
2023-04-17T01:27:57.184Z,28.67
2023-04-17T01:30:24.849Z,27.93
2023-04-17T01:32:55.853Z,26.93
2023-04-17T01:35:23.561Z,27.57
2023-04-17T01:37:50.897Z,32.13
2023-04-17T01:40:18.320Z,26.77
2023-04-17T01:42:48.622Z,28.80
2023-04-17T01:45:15.774Z,27.67
2023-04-17T01:47:42.958Z,32.00
2023-04-17T01:50:11.089Z,30.03
2023-04-17T01:52:39.934Z,28.00
2023-04-17T01:55:07.655Z,25.13
2023-04-17T01:57:35.060Z,26.13
2023-04-17T02:00:02.336Z,28.03
2023-04-17T02:02:29.562Z,26.53
2023-04-17T02:04:56.810Z,26.37
2023-04-17T02:07:24.011Z,28.80
2023-04-17T02:09:51.137Z,28.30
2023-04-17T02:12:18.432Z,27.33
2023-04-17T02:14:45.609Z,27.47
2023-04-17T02:17:12.903Z,28.90
2023-04-17T02:19:40.261Z,28.10
2023-04-17T02:22:07.407Z,28.20
2023-04-17T02:24:34.772Z,26.13
2023-04-17T02:27:03.205Z,28.33
2023-04-17T02:29:30.394Z,28.83
2023-04-17T02:31:57.827Z,29.00
2023-04-17T02:34:26.392Z,29.00
2023-04-17T02:36:53.523Z,29.73
2023-04-17T02:39:20.989Z,27.63
2023-04-17T02:41:48.411Z,30.57
2023-04-17T02:44:15.683Z,31.93
2023-04-17T02:46:42.864Z,27.83
2023-04-17T02:49:10.210Z,28.93
2023-04-17T02:51:37.665Z,31.20
2023-04-17T02:54:05.330Z,29.70
2023-04-17T02:56:32.633Z,31.77
2023-04-17T02:58:59.789Z,29.80
2023-04-17T03:01:28.108Z,31.13
2023-04-17T03:03:56.506Z,33.73
2023-04-17T03:06:24.393Z,31.20
2023-04-17T03:08:51.806Z,32.73
2023-04-17T03:11:19.013Z,30.53
2023-04-17T03:13:46.260Z,35.67
2023-04-17T03:16:13.509Z,33.30
2023-04-17T03:18:42.093Z,36.07
2023-04-17T03:21:09.992Z,31.77
2023-04-17T03:23:37.105Z,32.17
2023-04-17T03:26:04.491Z,35.33
2023-04-17T03:28:31.590Z,37.07
2023-04-17T03:30:59.744Z,35.80
2023-04-17T03:33:27.475Z,33.47
2023-04-17T03:35:54.746Z,33.40
2023-04-17T03:38:21.866Z,36.60
2023-04-17T03:40:49.308Z,36.43
2023-04-17T03:43:16.743Z,33.73
2023-04-17T03:45:45.350Z,36.93
2023-04-17T03:48:12.680Z,36.10
2023-04-17T03:50:40.025Z,33.20
2023-04-17T03:53:07.217Z,36.23
2023-04-17T03:55:35.572Z,37.27
2023-04-17T03:58:02.752Z,35.20
2023-04-17T04:00:31.853Z,36.00
2023-04-17T04:02:59.125Z,36.97
2023-04-17T04:05:26.710Z,34.20
2023-04-17T04:07:53.870Z,35.57
2023-04-17T04:10:21.553Z,35.33
2023-04-17T04:12:48.816Z,37.20
2023-04-17T04:15:16.196Z,36.77
2023-04-17T04:17:43.431Z,39.17
2023-04-17T04:20:11.107Z,38.73
2023-04-17T04:22:38.181Z,43.00
2023-04-17T04:25:06.603Z,38.67
2023-04-17T04:27:33.730Z,37.50
2023-04-17T04:30:02.217Z,35.60
2023-04-17T04:32:29.507Z,38.20
2023-04-17T04:34:58.530Z,38.20
2023-04-17T04:37:30.145Z,39.17
2023-04-17T04:40:02.326Z,39.40
2023-04-17T04:42:29.632Z,40.90
2023-04-17T04:44:56.858Z,37.60
2023-04-17T04:47:24.106Z,38.40
2023-04-17T04:49:51.179Z,39.47
2023-04-17T04:52:18.386Z,38.27
2023-04-17T04:54:46.215Z,37.50
2023-04-17T04:57:13.463Z,36.37
2023-04-17T04:59:40.628Z,38.17
2023-04-17T05:02:08.016Z,38.90
2023-04-17T05:04:35.642Z,38.60
2023-04-17T05:07:05.628Z,36.43
2023-04-17T05:09:33.829Z,37.73
2023-04-17T05:12:01.377Z,37.37
2023-04-17T05:14:28.752Z,37.23
2023-04-17T05:16:56.129Z,40.40
2023-04-17T05:19:23.384Z,36.80
2023-04-17T05:21:50.729Z,39.10
2023-04-17T05:24:17.977Z,37.23
2023-04-17T05:26:45.769Z,36.57
2023-04-17T05:29:13.158Z,35.07
2023-04-17T05:31:41.060Z,40.13
2023-04-17T05:34:08.243Z,38.60
2023-04-17T05:36:35.794Z,36.90
2023-04-17T05:39:03.999Z,35.70
2023-04-17T05:41:31.624Z,37.50
2023-04-17T05:43:58.914Z,36.33
2023-04-17T05:46:26.446Z,34.53
2023-04-17T05:48:53.730Z,37.97
2023-04-17T05:51:20.984Z,38.77
2023-04-17T05:53:48.836Z,39.83
2023-04-17T05:56:16.405Z,37.03
2023-04-17T05:58:43.707Z,39.60
2023-04-17T06:01:17.884Z,41.93
2023-04-17T06:03:45.386Z,37.67
2023-04-17T06:06:12.812Z,38.53
2023-04-17T06:08:40.041Z,35.53
2023-04-17T06:11:07.822Z,40.77
2023-04-17T06:13:35.001Z,39.27
2023-04-17T06:16:02.212Z,38.87
2023-04-17T06:18:29.413Z,39.80
2023-04-17T06:20:56.884Z,38.77
2023-04-17T06:23:24.038Z,39.97
2023-04-17T06:25:51.446Z,36.67
2023-04-17T06:28:18.703Z,39.20
2023-04-17T06:30:46.209Z,42.70
2023-04-17T06:33:13.531Z,39.10
2023-04-17T06:35:41.150Z,40.03
2023-04-17T06:38:09.105Z,40.60
2023-04-17T06:40:36.802Z,42.10
2023-04-17T06:43:04.026Z,41.33
2023-04-17T06:45:36.030Z,38.67
2023-04-17T06:48:03.313Z,37.00
2023-04-17T06:50:30.638Z,42.27
2023-04-17T06:52:57.902Z,37.43
2023-04-17T06:55:25.053Z,37.03
2023-04-17T06:57:52.252Z,40.50
2023-04-17T07:00:20.328Z,42.07
2023-04-17T07:02:47.766Z,39.37
2023-04-17T07:05:14.983Z,34.93
2023-04-17T07:07:42.555Z,36.83
2023-04-17T07:10:09.942Z,38.07
2023-04-17T07:12:37.646Z,39.73
2023-04-17T07:15:05.152Z,38.77
2023-04-17T07:17:32.484Z,38.23
2023-04-17T07:19:59.635Z,39.33
2023-04-17T07:22:27.506Z,35.53
2023-04-17T07:24:54.851Z,39.73
2023-04-17T07:27:22.215Z,39.03
2023-04-17T07:29:54.632Z,36.47
2023-04-17T07:32:24.847Z,35.93
2023-04-17T07:34:52.544Z,38.47
2023-04-17T07:37:19.863Z,38.87
2023-04-17T07:39:50.413Z,37.30
2023-04-17T07:42:17.670Z,40.67
2023-04-17T07:44:47.500Z,38.20
2023-04-17T07:47:14.980Z,37.53
2023-04-17T07:49:42.428Z,38.07
2023-04-17T07:52:09.548Z,36.30
2023-04-17T07:54:36.725Z,36.70
2023-04-17T07:57:04.015Z,39.90
2023-04-17T07:59:31.311Z,34.97
2023-04-17T08:01:58.599Z,37.80
2023-04-17T08:04:26.403Z,38.33
2023-04-17T08:06:53.872Z,34.27
2023-04-17T08:09:22.550Z,32.13
2023-04-17T08:11:57.159Z,34.67
2023-04-17T08:14:25.695Z,32.57
2023-04-17T08:16:53.028Z,33.83
2023-04-17T08:19:20.283Z,34.77
2023-04-17T08:21:51.960Z,35.90
2023-04-17T08:24:20.081Z,31.50
2023-04-17T08:26:48.063Z,35.83
2023-04-17T08:29:16.211Z,32.97
2023-04-17T08:31:43.587Z,35.83
2023-04-17T08:34:15.098Z,36.20
2023-04-17T08:36:43.354Z,34.97
2023-04-17T08:39:14.788Z,35.03
2023-04-17T08:42:00.557Z,33.73
2023-04-17T08:44:27.762Z,36.00
2023-04-17T08:47:00.489Z,35.20
2023-04-17T08:49:29.717Z,37.07
2023-04-17T08:51:57.295Z,34.50
2023-04-17T08:54:24.558Z,34.77
2023-04-17T08:56:51.937Z,34.13
2023-04-17T08:59:19.196Z,32.27
2023-04-17T09:02:07.456Z,32.77
2023-04-17T09:04:45.878Z,31.63
2023-04-17T09:07:15.872Z,32.63
2023-04-17T09:09:55.834Z,33.33
2023-04-17T09:12:27.198Z,31.90
2023-04-17T09:14:54.459Z,34.47
2023-04-17T09:17:22.116Z,31.67
2023-04-17T09:20:09.857Z,31.30
2023-04-17T09:22:40.647Z,31.23
2023-04-17T09:25:23.344Z,33.07
2023-04-17T09:27:50.628Z,28.20
2023-04-17T09:30:17.924Z,31.17
2023-04-17T09:32:45.150Z,32.40
2023-04-17T09:35:27.574Z,30.67
2023-04-17T09:37:59.127Z,32.07
2023-04-17T09:40:36.186Z,29.57
2023-04-17T09:43:08.167Z,31.50
2023-04-17T09:45:42.366Z,31.37
2023-04-17T09:48:12.974Z,28.47
2023-04-17T09:50:40.505Z,28.97
2023-04-17T09:53:09.303Z,26.73
2023-04-17T09:55:38.406Z,27.70
2023-04-17T09:58:08.325Z,29.83
2023-04-17T10:00:38.219Z,28.20
2023-04-17T10:03:07.583Z,30.27
2023-04-17T10:05:36.301Z,26.03
2023-04-17T10:08:04.204Z,27.70
2023-04-17T10:10:36.578Z,31.13
2023-04-17T10:13:11.394Z,28.57
2023-04-17T10:15:39.840Z,27.83
2023-04-17T10:18:25.435Z,27.47
2023-04-17T10:20:55.729Z,25.80
2023-04-17T10:23:31.569Z,25.57
2023-04-17T10:26:27.167Z,24.40
2023-04-17T10:28:57.955Z,22.50
2023-04-17T10:32:10.833Z,23.90
2023-04-17T10:34:40.992Z,22.80
2023-04-17T10:37:15.395Z,22.90
2023-04-17T10:39:53.471Z,23.20
2023-04-17T10:42:23.436Z,22.10
2023-04-17T10:44:55.991Z,21.93
2023-04-17T10:47:31.521Z,21.83
2023-04-17T10:50:00.389Z,20.97
2023-04-17T10:52:34.904Z,20.47
2023-04-17T10:55:14.613Z,22.03
2023-04-17T10:58:02.477Z,20.70
2023-04-17T11:00:50.167Z,19.63
2023-04-17T11:03:18.216Z,19.50
2023-04-17T11:05:49.375Z,19.27
2023-04-17T11:08:16.537Z,19.17
2023-04-17T11:10:44.153Z,20.20
2023-04-17T11:13:11.641Z,20.13
2023-04-17T11:15:38.863Z,19.60
2023-04-17T11:18:06.479Z,19.27
2023-04-17T11:20:37.331Z,19.00
2023-04-17T11:23:07.083Z,17.77
2023-04-17T11:25:35.250Z,19.20
2023-04-17T11:28:06.209Z,17.63
2023-04-17T11:30:35.161Z,19.20
2023-04-17T11:33:08.081Z,17.63
2023-04-17T11:35:44.414Z,18.37
2023-04-17T11:38:21.154Z,19.20
2023-04-17T11:40:53.985Z,17.80
2023-04-17T11:43:23.723Z,17.37
2023-04-17T11:45:58.358Z,16.67
2023-04-17T11:48:32.420Z,16.13
2023-04-17T11:51:05.238Z,16.47
2023-04-17T11:53:36.442Z,17.10
2023-04-17T11:56:18.859Z,15.80
2023-04-17T11:58:55.039Z,16.40
2023-04-17T12:01:25.487Z,16.03
2023-04-17T12:03:56.322Z,15.63
2023-04-17T12:06:37.011Z,14.40
2023-04-17T12:09:06.582Z,15.63
2023-04-17T12:11:34.337Z,15.70
2023-04-17T12:14:02.745Z,15.83
2023-04-17T12:16:30.511Z,15.33
2023-04-17T12:18:58.177Z,15.07
2023-04-17T12:21:25.928Z,15.87
2023-04-17T12:23:53.069Z,14.70
2023-04-17T12:26:20.869Z,15.47
2023-04-17T12:28:48.174Z,14.57
2023-04-17T12:31:15.427Z,14.73
2023-04-17T12:33:42.614Z,15.73
2023-04-17T12:36:10.164Z,16.03
2023-04-17T12:38:37.426Z,15.23
2023-04-17T12:41:04.625Z,15.27
2023-04-17T12:43:33.755Z,17.27
2023-04-17T12:46:01.889Z,16.50
2023-04-17T12:48:31.367Z,14.53
2023-04-17T12:51:00.093Z,15.37
2023-04-17T12:53:27.279Z,14.33
2023-04-17T12:55:54.572Z,14.47
2023-04-17T12:58:21.804Z,16.10
2023-04-17T13:00:48.974Z,15.37
2023-04-17T13:03:16.555Z,14.77
2023-04-17T13:05:44.564Z,14.67
2023-04-17T13:08:15.303Z,15.60
2023-04-17T13:10:43.168Z,14.80
2023-04-17T13:13:11.225Z,14.73
2023-04-17T13:15:38.526Z,15.37
2023-04-17T13:18:06.046Z,14.73
2023-04-17T13:20:33.319Z,13.90
2023-04-17T13:23:00.790Z,14.37
2023-04-17T13:25:29.844Z,14.37
2023-04-17T13:27:57.197Z,12.67
2023-04-17T13:30:25.545Z,13.03
2023-04-17T13:32:53.044Z,13.63
2023-04-17T13:35:20.400Z,13.17
2023-04-17T13:37:47.733Z,12.13
2023-04-17T13:40:17.191Z,12.30
2023-04-17T13:42:44.734Z,12.53
2023-04-17T13:45:12.817Z,13.43
2023-04-17T13:47:40.200Z,12.47
2023-04-17T13:50:08.442Z,14.73
2023-04-17T13:52:36.025Z,13.53
2023-04-17T13:55:03.236Z,12.87
2023-04-17T13:57:30.711Z,14.40
2023-04-17T13:59:57.950Z,12.37
2023-04-17T14:02:25.424Z,13.30
2023-04-17T14:04:52.962Z,13.00
2023-04-17T14:07:20.297Z,13.17
2023-04-17T14:09:48.122Z,13.90
2023-04-17T14:12:20.681Z,13.57
2023-04-17T14:14:48.043Z,13.10
2023-04-17T14:17:15.290Z,12.17
2023-04-17T14:19:45.064Z,12.27
2023-04-17T14:22:12.519Z,11.33
2023-04-17T14:24:39.801Z,10.97
2023-04-17T14:27:09.169Z,10.37
2023-04-17T14:29:36.463Z,10.97
2023-04-17T14:32:03.717Z,10.90
2023-04-17T14:34:30.934Z,11.87
2023-04-17T14:36:58.711Z,10.57
2023-04-17T14:39:25.989Z,12.57
2023-04-17T14:41:53.407Z,10.47
2023-04-17T14:44:21.420Z,11.80
2023-04-17T14:46:49.100Z,11.10
2023-04-17T14:49:16.828Z,10.40
2023-04-17T14:51:44.068Z,11.30
2023-04-17T14:54:11.291Z,11.67
2023-04-17T14:56:39.462Z,10.93
2023-04-17T14:59:06.620Z,10.07
2023-04-17T15:01:34.104Z,9.73
2023-04-17T15:04:02.183Z,10.37
2023-04-17T15:06:29.986Z,11.27
2023-04-17T15:08:57.206Z,11.33
2023-04-17T15:11:24.937Z,12.43
2023-04-17T15:13:52.792Z,11.20
2023-04-17T15:16:20.332Z,10.97
2023-04-17T15:18:48.209Z,11.07
2023-04-17T15:21:17.153Z,10.87
2023-04-17T15:23:44.318Z,10.80
2023-04-17T15:26:13.160Z,11.13
2023-04-17T15:28:40.964Z,13.00
2023-04-17T15:31:08.509Z,10.60
2023-04-17T15:33:36.635Z,10.20
2023-04-17T15:36:04.154Z,11.33
2023-04-17T15:38:31.633Z,9.53
2023-04-17T15:40:59.179Z,11.83
2023-04-17T15:43:27.152Z,10.03
2023-04-17T15:45:55.456Z,9.27
2023-04-17T15:48:24.541Z,8.73
2023-04-17T15:50:51.732Z,9.03
2023-04-17T15:53:18.830Z,8.77
2023-04-17T15:55:46.465Z,9.53
2023-04-17T15:58:13.817Z,8.47
2023-04-17T16:00:40.998Z,9.03
2023-04-17T16:03:08.341Z,8.90
2023-04-17T16:05:35.961Z,8.53
2023-04-17T16:08:03.529Z,8.20
2023-04-17T16:10:30.794Z,8.83
2023-04-17T16:12:58.118Z,8.50
2023-04-17T16:15:25.619Z,9.83
2023-04-17T16:17:52.781Z,8.90
2023-04-17T16:20:19.925Z,8.63
2023-04-17T16:22:47.203Z,8.03
2023-04-17T16:25:14.553Z,9.80
2023-04-17T16:27:42.060Z,7.60
2023-04-17T16:30:11.001Z,7.60
2023-04-17T16:32:38.434Z,8.33
2023-04-17T16:35:06.378Z,8.87
2023-04-17T16:37:33.732Z,8.50
2023-04-17T16:40:05.219Z,9.63
2023-04-17T16:42:33.214Z,8.17
2023-04-17T16:45:00.701Z,8.43
2023-04-17T16:47:31.486Z,8.83
2023-04-17T16:49:58.926Z,8.77
2023-04-17T16:52:26.069Z,8.53
2023-04-17T16:54:53.627Z,7.97
2023-04-17T16:57:21.129Z,8.93
2023-04-17T16:59:48.595Z,8.40
2023-04-17T17:02:16.245Z,10.70
2023-04-17T17:04:45.144Z,12.47
2023-04-17T17:07:31.117Z,8.40
2023-04-17T17:09:58.547Z,9.13
2023-04-17T17:12:26.063Z,9.37
2023-04-17T17:14:53.180Z,10.33
2023-04-17T17:17:20.718Z,8.70
2023-04-17T17:19:47.890Z,9.83
2023-04-17T17:22:15.106Z,9.40
2023-04-17T17:24:42.468Z,8.57
2023-04-17T17:27:09.582Z,10.20
2023-04-17T17:29:36.747Z,8.97
2023-04-17T17:32:04.294Z,9.23
2023-04-17T17:34:32.532Z,9.37
2023-04-17T17:36:59.817Z,9.57
2023-04-17T17:39:27.268Z,9.77
2023-04-17T17:41:56.047Z,8.33
2023-04-17T17:44:23.672Z,9.40
2023-04-17T17:46:51.055Z,9.27
2023-04-17T17:49:18.326Z,8.83
2023-04-17T17:51:47.721Z,10.10
2023-04-17T17:54:14.926Z,9.17
2023-04-17T17:56:42.356Z,10.07
2023-04-17T17:59:09.586Z,9.60
2023-04-17T18:01:36.726Z,10.13
2023-04-17T18:04:04.407Z,10.67
2023-04-17T18:06:31.795Z,12.33
2023-04-17T18:08:59.014Z,9.97
2023-04-17T18:11:27.323Z,8.83
2023-04-17T18:13:54.573Z,9.83
2023-04-17T18:16:22.777Z,10.43
2023-04-17T18:18:50.100Z,9.67
2023-04-17T18:21:17.210Z,12.07
2023-04-17T18:23:44.527Z,9.80
2023-04-17T18:26:13.081Z,9.67
2023-04-17T18:28:40.520Z,10.50
2023-04-17T18:31:07.781Z,9.67
2023-04-17T18:33:36.167Z,10.00
2023-04-17T18:36:03.541Z,11.27
2023-04-17T18:38:31.397Z,9.30
2023-04-17T18:40:59.551Z,10.30
2023-04-17T18:43:27.519Z,9.90
2023-04-17T18:45:55.220Z,9.43
2023-04-17T18:48:24.182Z,10.07
2023-04-17T18:50:51.495Z,9.83
2023-04-17T18:53:18.722Z,10.20
2023-04-17T18:55:46.020Z,9.20
2023-04-17T18:58:13.297Z,9.87
2023-04-17T19:00:40.505Z,8.90
2023-04-17T19:03:07.833Z,9.77
2023-04-17T19:05:35.164Z,9.43
2023-04-17T19:08:02.592Z,10.77
2023-04-17T19:10:30.226Z,8.60
2023-04-17T19:12:57.770Z,11.87
2023-04-17T19:15:25.030Z,10.40
2023-04-17T19:17:52.879Z,10.20
2023-04-17T19:20:20.388Z,11.37
2023-04-17T19:22:47.469Z,10.73
2023-04-17T19:25:16.894Z,10.33
2023-04-17T19:27:44.289Z,13.03
2023-04-17T19:30:12.059Z,10.23
2023-04-17T19:32:39.261Z,13.00
2023-04-17T19:35:26.451Z,9.97
2023-04-17T19:37:53.848Z,9.63
2023-04-17T19:40:24.813Z,10.47
2023-04-17T19:42:53.574Z,10.90
2023-04-17T19:45:23.608Z,11.03
2023-04-17T19:47:56.327Z,10.30
2023-04-17T19:50:29.240Z,9.87
2023-04-17T19:52:58.544Z,10.90
2023-04-17T19:55:26.007Z,10.27
2023-04-17T19:57:56.255Z,11.20
2023-04-17T20:00:23.706Z,13.07
2023-04-17T20:02:51.032Z,13.73
2023-04-17T20:05:18.756Z,14.47
2023-04-17T20:07:46.254Z,14.33
2023-04-17T20:10:13.757Z,13.70
2023-04-17T20:12:40.978Z,15.37
2023-04-17T20:15:09.153Z,12.83
2023-04-17T20:17:39.000Z,13.43
2023-04-17T20:20:25.312Z,13.83
2023-04-17T20:22:52.525Z,13.37
2023-04-17T20:25:19.827Z,13.47
2023-04-17T20:27:47.356Z,12.90
2023-04-17T20:30:15.418Z,13.63
2023-04-17T20:32:43.017Z,12.13
2023-04-17T20:35:10.731Z,10.70
2023-04-17T20:37:40.788Z,12.97
2023-04-17T20:40:13.476Z,13.70
2023-04-17T20:42:44.876Z,11.50
2023-04-17T20:45:12.336Z,12.60
2023-04-17T20:47:54.952Z,12.57
2023-04-17T20:50:24.546Z,13.50
2023-04-17T20:52:51.795Z,13.43
2023-04-17T20:55:20.492Z,12.73
2023-04-17T20:57:48.450Z,13.73
2023-04-17T21:00:16.325Z,13.87
2023-04-17T21:02:45.013Z,13.27
2023-04-17T21:05:12.474Z,12.97
2023-04-17T21:07:42.126Z,13.43
2023-04-17T21:10:09.635Z,14.47
2023-04-17T21:12:37.079Z,14.13
2023-04-17T21:15:04.958Z,14.50
2023-04-17T21:17:32.250Z,15.67
2023-04-17T21:19:59.754Z,13.17
2023-04-17T21:22:27.249Z,13.20
2023-04-17T21:24:54.581Z,13.93
2023-04-17T21:27:21.833Z,11.90
2023-04-17T21:29:49.250Z,12.47
2023-04-17T21:32:16.760Z,12.20
2023-04-17T21:34:44.156Z,14.07
2023-04-17T21:37:11.491Z,14.37
2023-04-17T21:39:38.667Z,11.40
2023-04-17T21:42:06.072Z,11.90
2023-04-17T21:44:33.312Z,12.20
2023-04-17T21:47:00.682Z,11.90
2023-04-17T21:49:28.040Z,12.17
2023-04-17T21:51:55.288Z,13.03
2023-04-17T21:54:22.571Z,12.60
2023-04-17T21:56:49.846Z,11.53
2023-04-17T21:59:18.265Z,12.53
2023-04-17T22:01:45.442Z,11.33
2023-04-17T22:04:13.039Z,11.20
2023-04-17T22:06:41.712Z,9.87
2023-04-17T22:09:08.981Z,12.27
2023-04-17T22:11:39.528Z,11.90
2023-04-17T22:14:06.853Z,10.87
2023-04-17T22:16:34.389Z,11.30
2023-04-17T22:19:01.687Z,12.23
2023-04-17T22:22:06.659Z,10.50
2023-04-17T22:25:11.069Z,10.60
2023-04-17T22:28:15.893Z,10.53
2023-04-17T22:31:39.166Z,10.63
2023-04-17T22:34:25.011Z,10.50
2023-04-17T22:37:10.983Z,10.57
2023-04-17T22:40:53.348Z,13.87
2023-04-17T22:43:51.295Z,12.00
2023-04-17T22:46:37.410Z,11.27
2023-04-17T22:49:05.973Z,11.10
2023-04-17T22:51:33.605Z,11.53
2023-04-17T22:54:08.570Z,11.77
2023-04-17T22:56:42.926Z,11.10
2023-04-17T22:59:12.140Z,12.73
2023-04-17T23:01:39.378Z,11.63
2023-04-17T23:04:06.582Z,11.77
2023-04-17T23:06:33.692Z,12.77
2023-04-17T23:09:00.958Z,12.37
2023-04-17T23:11:31.127Z,12.20
2023-04-17T23:13:58.636Z,11.07
2023-04-17T23:16:26.377Z,12.50
2023-04-17T23:18:53.861Z,11.83
2023-04-17T23:21:21.376Z,10.83
2023-04-17T23:23:48.760Z,11.83
2023-04-17T23:26:19.212Z,14.17
2023-04-17T23:28:46.505Z,12.63
2023-04-17T23:31:14.190Z,12.27
2023-04-17T23:33:41.495Z,12.47
2023-04-17T23:36:13.397Z,11.57
2023-04-17T23:38:40.697Z,13.17
2023-04-17T23:41:08.038Z,13.20
2023-04-17T23:43:35.302Z,14.70
2023-04-17T23:46:02.462Z,14.43
2023-04-17T23:48:29.750Z,12.27
2023-04-17T23:50:57.321Z,12.57
2023-04-17T23:53:24.551Z,12.03
2023-04-17T23:55:52.098Z,11.50
2023-04-17T23:58:19.384Z,13.73
